createdAt,value
2018-03-14T00:01:30.755Z,3.93
2018-03-14T00:03:59.050Z,3.47
2018-03-14T00:06:28.134Z,3.40
2018-03-14T00:08:56.779Z,4.13
2018-03-14T00:11:25.089Z,3.17
2018-03-14T00:13:53.395Z,3.60
2018-03-14T00:16:21.725Z,2.70
2018-03-14T00:18:50.790Z,2.50
2018-03-14T00:21:19.171Z,3.20
2018-03-14T00:23:47.466Z,3.67
2018-03-14T00:26:15.798Z,4.03
2018-03-14T00:28:44.096Z,4.70
2018-03-14T00:31:12.418Z,3.73
2018-03-14T00:33:42.694Z,3.80
2018-03-14T00:36:11.010Z,2.80
2018-03-14T00:38:40.062Z,4.40
2018-03-14T00:41:08.390Z,3.70
2018-03-14T00:43:36.679Z,3.60
2018-03-14T00:46:05.366Z,4.40
2018-03-14T00:48:33.775Z,3.40
2018-03-14T00:51:02.216Z,4.20
2018-03-14T00:53:30.613Z,4.13
2018-03-14T00:55:59.229Z,4.70
2018-03-14T00:58:27.525Z,5.63
2018-03-14T01:00:55.832Z,4.93
2018-03-14T01:03:24.152Z,3.83
2018-03-14T01:05:52.482Z,4.00
2018-03-14T01:08:21.565Z,4.87
2018-03-14T01:10:49.907Z,4.87
2018-03-14T01:13:18.990Z,4.73
2018-03-14T01:15:48.814Z,4.67
2018-03-14T01:18:17.225Z,4.53
2018-03-14T01:20:45.546Z,6.13
2018-03-14T01:23:15.366Z,4.70
2018-03-14T01:25:43.661Z,4.60
2018-03-14T01:28:11.993Z,5.50
2018-03-14T01:30:41.106Z,5.40
2018-03-14T01:33:09.439Z,6.03
2018-03-14T01:35:38.489Z,5.40
2018-03-14T01:38:06.908Z,5.77
2018-03-14T01:40:35.219Z,5.40
2018-03-14T01:43:03.625Z,5.90
2018-03-14T01:45:32.023Z,4.77
2018-03-14T01:48:00.336Z,6.20
2018-03-14T01:50:28.622Z,5.27
2018-03-14T01:53:09.008Z,4.97
2018-03-14T01:55:37.354Z,5.30
2018-03-14T01:58:06.501Z,5.70
2018-03-14T02:00:35.202Z,6.90
2018-03-14T02:03:03.603Z,5.83
2018-03-14T02:05:32.466Z,6.90
2018-03-14T02:08:00.769Z,5.33
2018-03-14T02:10:29.065Z,7.33
2018-03-14T02:12:57.389Z,5.87
2018-03-14T02:15:25.714Z,7.93
2018-03-14T02:17:54.814Z,8.30
2018-03-14T02:20:23.151Z,9.93
2018-03-14T02:22:51.445Z,7.73
2018-03-14T02:25:19.840Z,8.17
2018-03-14T02:27:48.925Z,7.40
2018-03-14T02:30:17.260Z,8.30
2018-03-14T02:32:45.546Z,8.40
2018-03-14T02:35:15.354Z,7.20
2018-03-14T02:37:43.678Z,8.27
2018-03-14T02:40:11.974Z,8.57
2018-03-14T02:42:40.307Z,8.63
2018-03-14T02:45:09.387Z,9.53
2018-03-14T02:47:37.710Z,8.13
2018-03-14T02:50:06.034Z,9.70
2018-03-14T02:52:34.382Z,7.00
2018-03-14T02:55:03.102Z,8.30
2018-03-14T02:57:31.513Z,7.10
2018-03-14T02:59:59.918Z,8.93
2018-03-14T03:02:28.231Z,9.00
2018-03-14T03:04:56.546Z,8.47
2018-03-14T03:07:24.830Z,8.27
2018-03-14T03:09:53.238Z,7.00
2018-03-14T03:12:21.541Z,8.43
2018-03-14T03:14:49.981Z,8.57
2018-03-14T03:17:19.140Z,7.73
2018-03-14T03:19:47.450Z,9.70
2018-03-14T03:22:15.734Z,10.57
2018-03-14T03:24:44.049Z,10.60
2018-03-14T03:27:12.366Z,9.17
2018-03-14T03:29:40.682Z,11.23
2018-03-14T03:32:08.994Z,9.87
2018-03-14T03:34:37.472Z,9.67
2018-03-14T03:37:05.802Z,10.53
2018-03-14T03:39:34.184Z,10.93
2018-03-14T03:42:02.639Z,9.27
2018-03-14T03:44:31.237Z,10.33
2018-03-14T03:47:00.323Z,10.73
2018-03-14T03:49:28.607Z,10.20
2018-03-14T03:51:57.237Z,8.50
2018-03-14T03:54:25.526Z,9.23
2018-03-14T03:56:53.806Z,10.90
2018-03-14T03:59:22.126Z,10.63
2018-03-14T04:01:50.414Z,12.00
2018-03-14T04:04:19.010Z,10.33
2018-03-14T04:06:47.318Z,10.00
2018-03-14T04:09:15.659Z,9.23
2018-03-14T04:11:44.560Z,11.20
2018-03-14T04:14:15.119Z,8.97
2018-03-14T04:16:44.489Z,8.50
2018-03-14T04:19:14.001Z,8.20
2018-03-14T04:21:44.400Z,8.30
2018-03-14T04:24:12.913Z,9.10
2018-03-14T04:26:41.702Z,10.10
2018-03-14T04:29:11.809Z,9.53
2018-03-14T04:31:42.248Z,9.80
2018-03-14T04:34:13.704Z,8.80
2018-03-14T04:36:43.976Z,9.07
2018-03-14T04:39:14.102Z,8.47
2018-03-14T04:41:44.107Z,10.20
2018-03-14T04:44:13.676Z,8.10
2018-03-14T04:46:42.463Z,8.73
2018-03-14T04:49:12.851Z,8.60
2018-03-14T04:51:42.681Z,8.47
2018-03-14T04:54:13.607Z,9.27
2018-03-14T04:56:43.031Z,9.63
2018-03-14T04:59:12.050Z,8.27
2018-03-14T05:01:42.676Z,9.20
2018-03-14T05:04:11.451Z,8.50
2018-03-14T05:06:39.851Z,10.03
2018-03-14T05:09:08.474Z,8.57
2018-03-14T05:11:38.000Z,8.77
2018-03-14T05:14:07.283Z,9.53
2018-03-14T05:16:36.451Z,11.23
2018-03-14T05:19:04.830Z,9.70
2018-03-14T05:21:33.146Z,9.57
2018-03-14T05:24:01.466Z,11.03
2018-03-14T05:26:29.787Z,10.07
2018-03-14T05:28:58.102Z,10.60
2018-03-14T05:31:27.490Z,11.03
2018-03-14T05:33:55.766Z,10.27
2018-03-14T05:36:24.083Z,11.87
2018-03-14T05:38:53.290Z,10.63
2018-03-14T05:41:21.585Z,10.63
2018-03-14T05:43:49.867Z,9.70
2018-03-14T05:46:18.953Z,11.43
2018-03-14T05:48:47.238Z,11.40
2018-03-14T05:51:15.532Z,10.27
2018-03-14T05:53:43.858Z,10.50
2018-03-14T05:56:12.143Z,10.20
2018-03-14T05:58:40.553Z,9.97
2018-03-14T06:01:08.839Z,10.27
2018-03-14T06:03:37.223Z,11.67
2018-03-14T06:06:05.584Z,10.73
2018-03-14T06:08:34.996Z,11.10
2018-03-14T06:11:03.354Z,9.53
2018-03-14T06:13:31.692Z,10.47
2018-03-14T06:16:00.023Z,10.37
2018-03-14T06:18:28.414Z,12.60
2018-03-14T06:20:57.014Z,11.00
2018-03-14T06:23:25.298Z,9.83
2018-03-14T06:25:53.588Z,9.50
2018-03-14T06:28:21.927Z,11.00
2018-03-14T06:30:50.987Z,10.10
2018-03-14T06:33:19.335Z,10.10
2018-03-14T06:35:47.628Z,10.47
2018-03-14T06:38:15.914Z,10.10
2018-03-14T06:40:44.238Z,10.00
2018-03-14T06:43:12.558Z,10.67
2018-03-14T06:45:40.851Z,11.13
2018-03-14T06:48:09.175Z,10.30
2018-03-14T06:50:37.487Z,10.17
2018-03-14T06:53:06.755Z,9.20
2018-03-14T06:55:35.175Z,9.50
2018-03-14T06:58:03.462Z,10.20
2018-03-14T07:00:43.770Z,9.33
2018-03-14T07:03:23.842Z,9.53
2018-03-14T07:06:04.019Z,10.70
2018-03-14T07:08:32.314Z,9.00
2018-03-14T07:11:00.634Z,10.13
2018-03-14T07:13:28.929Z,8.80
2018-03-14T07:15:57.438Z,9.17
2018-03-14T07:18:25.728Z,8.03
2018-03-14T07:20:54.019Z,8.63
2018-03-14T07:23:23.330Z,9.60
2018-03-14T07:25:51.631Z,9.10
2018-03-14T07:28:19.970Z,7.90
2018-03-14T07:30:48.302Z,7.10
2018-03-14T07:33:16.596Z,8.50
2018-03-14T07:35:44.908Z,7.70
2018-03-14T07:38:13.194Z,8.07
2018-03-14T07:40:41.510Z,8.40
2018-03-14T07:43:09.834Z,7.77
2018-03-14T07:45:38.887Z,6.60
2018-03-14T07:48:07.206Z,7.63
2018-03-14T07:50:35.596Z,6.10
2018-03-14T07:53:03.926Z,8.50
2018-03-14T07:55:33.044Z,7.13
2018-03-14T07:58:01.331Z,7.23
2018-03-14T08:00:29.610Z,6.70
2018-03-14T08:02:57.923Z,6.70
2018-03-14T08:05:26.243Z,6.07
2018-03-14T08:07:54.518Z,7.37
2018-03-14T08:10:22.847Z,7.70
2018-03-14T08:12:51.179Z,7.57
2018-03-14T08:15:20.238Z,6.97
2018-03-14T08:17:48.559Z,6.60
2018-03-14T08:20:16.851Z,7.30
2018-03-14T08:22:45.167Z,8.10
2018-03-14T08:25:13.453Z,6.40
2018-03-14T08:27:41.802Z,7.43
2018-03-14T08:30:10.062Z,5.80
2018-03-14T08:32:38.395Z,6.40
2018-03-14T08:35:06.692Z,6.83
2018-03-14T08:37:35.022Z,6.20
2018-03-14T08:40:04.127Z,6.30
2018-03-14T08:42:32.407Z,5.80
2018-03-14T08:45:00.692Z,7.27
2018-03-14T08:47:29.010Z,7.80
2018-03-14T08:49:58.094Z,7.30
2018-03-14T08:52:26.382Z,6.27
2018-03-14T08:54:54.724Z,5.40
2018-03-14T08:57:23.001Z,6.13
2018-03-14T08:59:51.297Z,6.30
2018-03-14T09:02:19.611Z,7.40
2018-03-14T09:04:47.934Z,6.40
2018-03-14T09:07:16.206Z,5.03
2018-03-14T09:09:44.490Z,7.00
2018-03-14T09:12:13.575Z,4.60
2018-03-14T09:14:41.887Z,5.50
2018-03-14T09:17:10.167Z,5.17
2018-03-14T09:19:38.510Z,4.33
2018-03-14T09:22:07.618Z,4.57
2018-03-14T09:24:35.961Z,4.23
2018-03-14T09:27:04.282Z,5.00
2018-03-14T09:29:32.556Z,4.10
2018-03-14T09:32:00.872Z,5.07
2018-03-14T09:34:29.146Z,4.53
2018-03-14T09:36:58.214Z,4.90
2018-03-14T09:39:26.499Z,4.53
2018-03-14T09:41:54.782Z,3.50
2018-03-14T09:44:23.142Z,3.90
2018-03-14T09:46:51.441Z,4.07
2018-03-14T09:49:20.546Z,4.50
2018-03-14T09:51:49.066Z,4.50
2018-03-14T09:54:17.351Z,3.70
2018-03-14T09:56:45.631Z,3.83
2018-03-14T09:59:13.947Z,3.90
2018-03-14T10:01:42.221Z,4.83
2018-03-14T10:04:10.551Z,3.80
2018-03-14T10:06:38.858Z,3.97
2018-03-14T10:09:07.285Z,4.93
2018-03-14T10:11:35.811Z,5.90
2018-03-14T10:14:04.426Z,5.90
2018-03-14T10:16:33.401Z,3.90
2018-03-14T10:19:02.291Z,4.67
2018-03-14T10:21:31.064Z,4.80
2018-03-14T10:23:59.652Z,3.70
2018-03-14T10:26:28.070Z,4.50
2018-03-14T10:28:57.363Z,5.40
2018-03-14T10:31:25.643Z,4.90
2018-03-14T10:33:53.922Z,6.43
2018-03-14T10:36:22.242Z,4.90
2018-03-14T10:38:50.533Z,6.60
2018-03-14T10:41:18.854Z,5.17
2018-03-14T10:43:47.170Z,6.20
2018-03-14T10:46:16.086Z,5.60
2018-03-14T10:48:44.839Z,5.23
2018-03-14T10:51:14.798Z,4.97
2018-03-14T10:53:43.750Z,5.30
2018-03-14T10:56:12.782Z,3.77
2018-03-14T10:58:42.189Z,4.33
2018-03-14T11:01:12.589Z,5.13
2018-03-14T11:03:44.841Z,4.50
2018-03-14T11:06:13.746Z,4.23
2018-03-14T11:08:43.239Z,4.30
2018-03-14T11:11:13.034Z,5.40
2018-03-14T11:13:43.019Z,4.47
2018-03-14T11:16:12.321Z,4.43
2018-03-14T11:18:41.618Z,4.77
2018-03-14T11:21:11.158Z,5.53
2018-03-14T11:23:40.123Z,4.70
2018-03-14T11:26:08.922Z,6.00
2018-03-14T11:28:38.304Z,6.03
2018-03-14T11:31:09.035Z,5.83
2018-03-14T11:33:38.259Z,6.07
2018-03-14T11:36:07.827Z,6.30
2018-03-14T11:38:39.013Z,6.30
2018-03-14T11:41:10.466Z,6.47
2018-03-14T11:43:39.427Z,6.43
2018-03-14T11:46:08.616Z,5.67
2018-03-14T11:48:38.646Z,6.00
2018-03-14T11:51:09.938Z,4.47
2018-03-14T11:53:39.022Z,5.20
2018-03-14T11:56:08.836Z,6.03
2018-03-14T11:58:39.268Z,5.53
2018-03-14T12:01:08.287Z,5.10
2018-03-14T12:03:38.091Z,4.90
2018-03-14T12:06:09.876Z,3.30
2018-03-14T12:08:39.647Z,4.77
2018-03-14T12:11:10.650Z,5.13
2018-03-14T12:13:40.444Z,5.17
2018-03-14T12:16:10.042Z,4.00
2018-03-14T12:18:40.806Z,4.57
2018-03-14T12:21:10.424Z,4.60
2018-03-14T12:23:40.522Z,4.10
2018-03-14T12:26:09.296Z,4.20
2018-03-14T12:28:39.469Z,3.80
2018-03-14T12:31:08.377Z,4.40
2018-03-14T12:33:39.344Z,4.93
2018-03-14T12:36:08.912Z,5.00
2018-03-14T12:38:39.428Z,4.20
2018-03-14T12:41:08.550Z,4.60
2018-03-14T12:43:37.746Z,4.73
2018-03-14T12:46:07.010Z,4.80
2018-03-14T12:48:36.030Z,5.10
2018-03-14T12:51:05.969Z,5.20
2018-03-14T12:53:35.449Z,4.87
2018-03-14T12:56:04.030Z,4.77
2018-03-14T12:58:33.117Z,4.80
2018-03-14T13:01:01.846Z,4.50
2018-03-14T13:03:30.514Z,5.17
2018-03-14T13:05:58.926Z,5.83
2018-03-14T13:08:27.291Z,5.80
2018-03-14T13:10:55.567Z,5.03
2018-03-14T13:13:24.645Z,5.67
2018-03-14T13:15:52.962Z,6.23
2018-03-14T13:18:21.286Z,5.83
2018-03-14T13:20:50.335Z,5.80
2018-03-14T13:23:18.703Z,5.43
2018-03-14T13:25:47.807Z,8.10
2018-03-14T13:28:16.297Z,5.53
2018-03-14T13:30:45.029Z,6.03
2018-03-14T13:33:14.967Z,5.03
2018-03-14T13:35:43.908Z,5.57
2018-03-14T13:38:12.758Z,4.20
2018-03-14T13:40:42.000Z,4.53
2018-03-14T13:43:11.154Z,4.10
2018-03-14T13:45:40.918Z,4.17
2018-03-14T13:48:10.533Z,4.07
2018-03-14T13:50:39.629Z,4.23
2018-03-14T13:53:10.325Z,4.77
2018-03-14T13:55:39.583Z,4.17
2018-03-14T13:58:08.813Z,3.93
2018-03-14T14:00:38.166Z,4.43
2018-03-14T14:03:08.694Z,4.33
2018-03-14T14:05:38.408Z,5.33
2018-03-14T14:08:07.760Z,5.40
2018-03-14T14:10:36.755Z,5.43
2018-03-14T14:13:06.591Z,5.40
2018-03-14T14:15:37.176Z,4.70
2018-03-14T14:18:06.932Z,4.43
2018-03-14T14:20:36.437Z,2.50
2018-03-14T14:23:05.325Z,3.20
2018-03-14T14:25:35.330Z,2.93
2018-03-14T14:28:04.173Z,3.17
2018-03-14T14:30:33.245Z,3.33
2018-03-14T14:33:02.654Z,2.53
2018-03-14T14:35:31.258Z,3.20
2018-03-14T14:37:59.603Z,3.00
2018-03-14T14:40:28.598Z,3.90
2018-03-14T14:42:57.772Z,3.70
2018-03-14T14:45:26.051Z,3.30
2018-03-14T14:47:55.230Z,2.60
2018-03-14T14:50:23.515Z,4.13
2018-03-14T14:52:51.795Z,3.73
2018-03-14T14:55:20.642Z,3.13
2018-03-14T14:57:48.920Z,4.70
2018-03-14T15:00:17.231Z,4.00
2018-03-14T15:02:45.979Z,3.77
2018-03-14T15:05:14.856Z,3.90
2018-03-14T15:07:44.062Z,3.73
2018-03-14T15:10:13.590Z,4.17
2018-03-14T15:12:43.594Z,4.20
2018-03-14T15:15:12.240Z,3.73
2018-03-14T15:17:41.458Z,4.53
2018-03-14T15:20:10.442Z,4.90
2018-03-14T15:22:41.853Z,5.20
2018-03-14T15:25:12.202Z,5.20
2018-03-14T15:27:42.002Z,3.53
2018-03-14T15:30:11.503Z,5.00
2018-03-14T15:32:41.218Z,4.63
2018-03-14T15:35:11.384Z,5.30
2018-03-14T15:37:41.284Z,5.27
2018-03-14T15:40:10.936Z,4.30
2018-03-14T15:42:40.351Z,6.83
2018-03-14T15:45:09.825Z,8.77
2018-03-14T15:47:40.208Z,7.53
2018-03-14T15:50:09.631Z,6.03
2018-03-14T15:52:39.020Z,6.03
2018-03-14T15:55:08.827Z,7.00
2018-03-14T15:57:39.068Z,5.37
2018-03-14T16:00:08.913Z,5.90
2018-03-14T16:02:38.974Z,5.53
2018-03-14T16:05:08.885Z,6.80
2018-03-14T16:07:38.362Z,5.93
2018-03-14T16:10:11.235Z,7.67
2018-03-14T16:12:42.127Z,5.03
2018-03-14T16:15:11.027Z,6.20
2018-03-14T16:17:40.913Z,6.70
2018-03-14T16:20:11.220Z,4.27
2018-03-14T16:22:42.431Z,5.20
2018-03-14T16:25:12.725Z,4.00
2018-03-14T16:27:42.654Z,5.23
2018-03-14T16:30:11.648Z,5.30
2018-03-14T16:32:40.844Z,5.00
2018-03-14T16:35:10.036Z,4.57
2018-03-14T16:37:39.539Z,4.30
2018-03-14T16:40:08.492Z,6.87
2018-03-14T16:42:37.452Z,6.67
2018-03-14T16:45:07.618Z,5.40
2018-03-14T16:47:37.299Z,5.50
2018-03-14T16:50:06.663Z,6.00
2018-03-14T16:52:36.845Z,5.20
2018-03-14T16:55:06.684Z,7.20
2018-03-14T16:57:36.602Z,7.53
2018-03-14T17:00:07.121Z,6.67
2018-03-14T17:02:37.666Z,6.50
2018-03-14T17:05:07.237Z,5.70
2018-03-14T17:07:36.889Z,5.53
2018-03-14T17:10:06.019Z,6.70
2018-03-14T17:12:35.050Z,8.10
2018-03-14T17:15:03.910Z,6.63
2018-03-14T17:17:33.976Z,6.10
2018-03-14T17:20:02.551Z,6.13
2018-03-14T17:22:31.090Z,5.30
2018-03-14T17:25:00.953Z,5.90
2018-03-14T17:27:30.070Z,6.30
2018-03-14T17:29:58.887Z,5.50
2018-03-14T17:32:27.827Z,5.77
2018-03-14T17:34:57.439Z,5.33
2018-03-14T17:37:26.868Z,5.03
2018-03-14T17:39:56.394Z,5.30
2018-03-14T17:42:25.580Z,5.20
2018-03-14T17:44:54.464Z,6.23
2018-03-14T17:47:22.834Z,5.03
2018-03-14T17:49:51.494Z,5.30
2018-03-14T17:52:19.770Z,4.10
2018-03-14T17:54:48.094Z,5.77
2018-03-14T17:57:16.378Z,5.90
2018-03-14T17:59:44.709Z,5.13
2018-03-14T18:02:13.043Z,5.07
2018-03-14T18:04:42.155Z,5.70
2018-03-14T18:07:11.302Z,5.03
2018-03-14T18:09:39.627Z,5.70
2018-03-14T18:12:07.906Z,5.43
2018-03-14T18:14:36.193Z,5.47
2018-03-14T18:17:05.270Z,4.77
2018-03-14T18:19:33.563Z,4.57
2018-03-14T18:22:01.895Z,5.90
2018-03-14T18:24:30.180Z,4.40
2018-03-14T18:26:58.474Z,4.70
2018-03-14T18:29:26.820Z,4.27
2018-03-14T18:31:55.951Z,4.37
2018-03-14T18:34:24.263Z,4.50
2018-03-14T18:36:52.591Z,5.27
2018-03-14T18:39:20.902Z,4.30
2018-03-14T18:41:49.195Z,5.53
2018-03-14T18:44:17.502Z,5.43
2018-03-14T18:46:45.778Z,5.00
2018-03-14T18:49:14.091Z,5.30
2018-03-14T18:51:42.375Z,9.67
2018-03-14T18:54:10.662Z,7.37
2018-03-14T18:56:38.991Z,5.57
2018-03-14T18:59:07.279Z,5.37
2018-03-14T19:01:35.554Z,5.97
2018-03-14T19:04:04.639Z,5.20
2018-03-14T19:06:32.918Z,5.27
2018-03-14T19:09:01.191Z,5.30
2018-03-14T19:11:29.510Z,4.57
2018-03-14T19:13:57.831Z,4.77
2018-03-14T19:16:26.239Z,3.90
2018-03-14T19:18:54.550Z,4.73
2018-03-14T19:21:22.872Z,4.33
2018-03-14T19:23:51.187Z,4.73
2018-03-14T19:26:20.238Z,4.63
2018-03-14T19:28:48.558Z,5.47
2018-03-14T19:31:16.857Z,5.10
2018-03-14T19:33:45.200Z,4.63
2018-03-14T19:36:13.483Z,5.63
2018-03-14T19:38:41.767Z,5.47
2018-03-14T19:41:10.083Z,5.03
2018-03-14T19:43:38.406Z,6.10
2018-03-14T19:46:06.691Z,5.03
2018-03-14T19:48:35.018Z,5.90
2018-03-14T19:51:05.078Z,5.20
2018-03-14T19:53:33.366Z,6.33
2018-03-14T19:56:02.414Z,8.80
2018-03-14T19:58:30.956Z,5.77
2018-03-14T20:00:59.239Z,6.40
2018-03-14T20:03:27.524Z,5.53
2018-03-14T20:05:56.087Z,5.50
2018-03-14T20:08:24.418Z,5.70
2018-03-14T20:10:52.703Z,7.40
2018-03-14T20:13:21.797Z,5.63
2018-03-14T20:15:50.088Z,5.90
2018-03-14T20:18:18.698Z,6.10
2018-03-14T20:20:46.984Z,5.50
2018-03-14T20:23:15.253Z,5.43
2018-03-14T20:25:43.872Z,6.83
2018-03-14T20:28:12.263Z,6.33
2018-03-14T20:30:41.346Z,6.37
2018-03-14T20:33:09.883Z,6.40
2018-03-14T20:35:38.123Z,6.63
2018-03-14T20:38:06.403Z,5.60
2018-03-14T20:40:34.746Z,5.60
2018-03-14T20:43:03.386Z,6.60
2018-03-14T20:45:31.750Z,6.90
2018-03-14T20:48:00.039Z,5.70
2018-03-14T20:50:30.016Z,5.93
2018-03-14T20:52:58.438Z,8.20
2018-03-14T20:55:27.583Z,6.63
2018-03-14T20:57:56.080Z,7.10
2018-03-14T21:00:25.202Z,8.20
2018-03-14T21:02:53.481Z,7.60
2018-03-14T21:05:22.573Z,6.53
2018-03-14T21:07:50.858Z,6.70
2018-03-14T21:10:19.383Z,6.80
2018-03-14T21:12:47.661Z,6.60
2018-03-14T21:15:15.943Z,6.93
2018-03-14T21:17:44.286Z,7.73
2018-03-14T21:20:12.889Z,6.43
2018-03-14T21:22:41.188Z,8.30
2018-03-14T21:25:09.516Z,8.00
2018-03-14T21:27:37.839Z,6.90
2018-03-14T21:30:07.116Z,7.73
2018-03-14T21:32:35.405Z,6.73
2018-03-14T21:35:03.709Z,8.33
2018-03-14T21:37:32.038Z,7.03
2018-03-14T21:40:00.446Z,6.50
2018-03-14T21:42:28.783Z,7.37
2018-03-14T21:44:57.382Z,8.43
2018-03-14T21:47:26.655Z,7.87
2018-03-14T21:49:56.554Z,7.67
2018-03-14T21:52:25.003Z,8.30
2018-03-14T21:54:53.326Z,7.70
2018-03-14T21:57:21.623Z,8.50
2018-03-14T21:59:50.022Z,8.03
2018-03-14T22:02:18.312Z,7.90
2018-03-14T22:04:46.630Z,7.70
2018-03-14T22:07:14.969Z,8.03
2018-03-14T22:09:44.231Z,8.00
2018-03-14T22:12:12.659Z,7.87
2018-03-14T22:14:40.947Z,7.93
2018-03-14T22:17:10.060Z,8.87
2018-03-14T22:19:38.386Z,7.10
2018-03-14T22:22:07.571Z,7.00
2018-03-14T22:24:35.892Z,7.40
2018-03-14T22:27:04.178Z,7.83
2018-03-14T22:29:32.491Z,6.60
2018-03-14T22:32:00.918Z,7.80
2018-03-14T22:34:29.258Z,7.70
2018-03-14T22:36:58.556Z,7.40
2018-03-14T22:39:26.930Z,8.10
2018-03-14T22:41:56.197Z,7.33
2018-03-14T22:44:24.722Z,7.03
2018-03-14T22:46:53.302Z,7.63
2018-03-14T22:49:22.415Z,7.23
2018-03-14T22:51:50.699Z,8.07
2018-03-14T22:54:19.012Z,9.50
2018-03-14T22:56:47.297Z,7.10
2018-03-14T22:59:15.623Z,7.80
2018-03-14T23:01:44.701Z,8.53
2018-03-14T23:04:13.233Z,8.30
2018-03-14T23:06:42.398Z,8.43
2018-03-14T23:09:11.488Z,7.40
2018-03-14T23:11:39.775Z,8.13
2018-03-14T23:14:08.054Z,8.57
2018-03-14T23:16:36.374Z,8.53
2018-03-14T23:19:04.651Z,8.83
2018-03-14T23:21:32.943Z,7.20
2018-03-14T23:24:02.023Z,7.27
2018-03-14T23:26:30.338Z,7.13
2018-03-14T23:28:58.814Z,8.10
2018-03-14T23:31:27.437Z,7.63
2018-03-14T23:33:56.850Z,8.37
2018-03-14T23:36:26.758Z,7.03
2018-03-14T23:38:55.502Z,7.80
2018-03-14T23:41:23.914Z,7.20
2018-03-14T23:43:52.318Z,7.10
2018-03-14T23:46:21.542Z,7.30
2018-03-14T23:48:49.831Z,7.33
2018-03-14T23:51:18.346Z,8.23
2018-03-14T23:53:46.636Z,6.40
2018-03-14T23:56:14.914Z,7.43
2018-03-14T23:58:43.507Z,6.47
